Time;durP1;ratioP1;P1;durP2;ratioP2;P2;SDS_P1;SDS_P2;PMS_P1;PMS_P2;Temp;Humidity;BMP_temperature;BMP_pressure;BME280_temperature;BME280_humidity;BME280_pressure;Samples;Min_cycle;Max_cycle;Signal;HPM_P1;HPM_P2
2023/10/02 00:01:06;;;;;;;1999.90;999.90;;;16.60;99.90;;;;;;4984656;28;20125;-71
2023/10/02 00:03:34;;;;;;;1999.90;999.90;;;16.60;99.90;;;;;;4981267;28;20050;-71
2023/10/02 00:06:00;;;;;;;1999.90;999.90;;;16.50;99.90;;;;;;4986894;28;20114;-71
2023/10/02 00:08:40;;;;;;;1999.90;999.90;;;16.40;99.90;;;;;;4975408;28;20578;-71
2023/10/02 00:14:27;;;;;;;1999.90;999.90;;;16.30;99.90;;;;;;4978915;28;20050;-71
2023/10/02 00:17:03;;;;;;;1999.90;999.90;;;16.40;99.90;;;;;;4977818;28;20153;-71
2023/10/02 00:19:43;;;;;;;1999.90;999.90;;;16.40;99.90;;;;;;4983627;28;20599;-71
2023/10/02 00:22:36;;;;;;;1999.90;999.90;;;16.40;99.90;;;;;;4973021;28;20436;-71
2023/10/02 00:25:51;;;;;;;1999.90;999.90;;;16.40;99.90;;;;;;4978458;28;20046;-71
2023/10/02 00:28:30;;;;;;;1999.90;999.90;;;16.40;99.90;;;;;;5020216;28;20433;-71
2023/10/02 00:30:56;;;;;;;1999.90;999.90;;;16.40;99.90;;;;;;5027105;28;20068;-71
2023/10/02 00:33:27;;;;;;;1999.90;999.90;;;16.50;99.90;;;;;;5009890;28;20049;-71
2023/10/02 00:35:56;;;;;;;1999.90;999.90;;;16.50;99.90;;;;;;5027472;28;20409;-71
2023/10/02 00:38:24;;;;;;;1999.90;999.90;;;16.40;99.90;;;;;;5026254;28;20128;-71
2023/10/02 00:40:49;;;;;;;1999.90;999.90;;;16.50;99.90;;;;;;5017499;28;20069;-71
2023/10/02 00:43:33;;;;;;;1999.90;999.90;;;16.40;99.90;;;;;;5026382;28;20084;-71
2023/10/02 00:45:59;;;;;;;1999.90;999.90;;;16.40;99.90;;;;;;5033606;28;20049;-72
2023/10/02 00:48:26;;;;;;;1999.90;999.90;;;16.40;99.90;;;;;;5026068;28;20045;-71
2023/10/02 00:51:00;;;;;;;1999.90;999.90;;;16.30;99.90;;;;;;5025840;28;20505;-71
2023/10/02 00:53:38;;;;;;;1999.90;999.90;;;16.30;99.90;;;;;;5009735;28;20077;-72
2023/10/02 00:56:19;;;;;;;1999.90;999.90;;;16.30;99.90;;;;;;5027078;28;20544;-71
2023/10/02 00:58:57;;;;;;;1999.90;999.90;;;16.20;99.90;;;;;;5025964;28;20119;-71
2023/10/02 01:01:23;;;;;;;1999.90;999.90;;;16.10;99.90;;;;;;5020850;28;20037;-71
2023/10/02 01:06:45;;;;;;;1999.90;999.90;;;16.10;99.90;;;;;;4976624;28;20054;-71
2023/10/02 01:09:18;;;;;;;1999.90;999.90;;;16.00;99.90;;;;;;4977465;28;20043;-71
2023/10/02 01:11:45;;;;;;;1999.90;999.90;;;15.90;99.90;;;;;;4970727;28;20515;-71
2023/10/02 01:14:11;;;;;;;1999.90;999.90;;;15.90;99.90;;;;;;4976837;28;20076;-71
2023/10/02 01:16:47;;;;;;;1999.90;999.90;;;15.90;99.90;;;;;;4958293;28;20038;-71
2023/10/02 01:19:13;;;;;;;1999.90;999.90;;;15.90;99.90;;;;;;4986510;28;20045;-71
2023/10/02 01:21:40;;;;;;;1999.90;999.90;;;15.90;99.90;;;;;;4974626;28;20207;-71
2023/10/02 01:24:10;;;;;;;1999.90;999.90;;;15.90;99.90;;;;;;4970540;28;20118;-72
2023/10/02 01:26:42;;;;;;;1999.90;999.90;;;16.00;99.90;;;;;;4976430;28;20387;-72
2023/10/02 01:29:10;;;;;;;1999.90;999.90;;;15.90;99.90;;;;;;4983634;28;20042;-71
2023/10/02 01:31:48;;;;;;;1999.90;999.90;;;15.90;99.90;;;;;;4981788;28;20046;-71
2023/10/02 01:37:00;;;;;;;1999.90;999.90;;;16.00;99.90;;;;;;4982765;28;20043;-71
2023/10/02 01:39:26;;;;;;;1999.90;999.90;;;16.00;99.90;;;;;;4974139;28;20134;-72
2023/10/02 01:41:54;;;;;;;1999.90;999.90;;;16.10;99.90;;;;;;4977276;28;20213;-72
2023/10/02 01:44:24;;;;;;;1999.90;999.90;;;16.10;99.90;;;;;;4984227;28;20394;-72
2023/10/02 01:46:52;;;;;;;1999.90;999.90;;;16.10;99.90;;;;;;4979207;28;20152;-71
2023/10/02 01:49:24;;;;;;;1999.90;999.90;;;16.10;99.90;;;;;;4971480;28;20053;-72
2023/10/02 01:52:01;;;;;;;1999.90;999.90;;;16.10;99.90;;;;;;4972985;28;20039;-72
2023/10/02 01:54:29;;;;;;;1999.90;999.90;;;16.00;99.90;;;;;;4975106;28;20050;-71
2023/10/02 01:56:55;;;;;;;1999.90;999.90;;;16.00;99.90;;;;;;4979218;28;20082;-71
2023/10/02 01:59:21;;;;;;;1999.90;999.90;;;16.00;99.90;;;;;;4984551;28;20038;-72
2023/10/02 02:01:55;;;;;;;1999.90;999.90;;;16.00;99.90;;;;;;4976491;28;20075;-72
2023/10/02 02:04:24;;;;;;;1999.90;999.90;;;16.00;99.90;;;;;;4975748;28;20081;-71
2023/10/02 02:06:58;;;;;;;1999.90;999.90;;;16.00;99.90;;;;;;4974748;28;20046;-72
2023/10/02 02:09:25;;;;;;;1999.90;999.90;;;16.00;99.90;;;;;;4986015;28;21182;-71
2023/10/02 02:14:52;;;;;;;1999.90;999.90;;;16.00;99.90;;;;;;5005571;28;20120;-72
2023/10/02 02:17:25;;;;;;;1999.90;999.90;;;16.00;99.90;;;;;;5025460;28;20037;-72
2023/10/02 02:19:51;;;;;;;1999.90;999.90;;;16.00;99.90;;;;;;4970037;28;20056;-71
2023/10/02 02:22:18;;;;;;;1999.90;999.90;;;15.90;99.90;;;;;;5025693;28;20406;-72
2023/10/02 02:24:45;;;;;;;1999.90;999.90;;;15.90;99.90;;;;;;4998163;28;20061;-71
2023/10/02 02:27:11;;;;;;;1999.90;999.90;;;15.80;99.90;;;;;;5008528;28;20098;-72
2023/10/02 02:29:38;;;;;;;1999.90;999.90;;;15.80;99.90;;;;;;5023701;28;20069;-71
2023/10/02 02:32:06;;;;;;;1999.90;999.90;;;15.80;99.90;;;;;;5026072;28;20058;-71
2023/10/02 02:34:32;;;;;;;1999.90;999.90;;;15.80;99.90;;;;;;5025694;28;20041;-71
2023/10/02 02:36:59;;;;;;;1999.90;999.90;;;15.70;99.90;;;;;;5023833;28;20558;-72
2023/10/02 02:39:27;;;;;;;1999.90;999.90;;;15.80;99.90;;;;;;4992788;28;20049;-71
2023/10/02 02:42:18;;;;;;;1999.90;999.90;;;15.80;99.90;;;;;;5014259;28;20442;-71
2023/10/02 02:44:49;;;;;;;1999.90;999.90;;;15.80;99.90;;;;;;5017882;28;20045;-71
2023/10/02 02:47:21;;;;;;;1999.90;999.90;;;15.90;99.90;;;;;;5024152;28;20503;-71
2023/10/02 02:49:48;;;;;;;1999.90;999.90;;;15.90;99.90;;;;;;4996199;28;20050;-71
2023/10/02 02:52:28;;;;;;;1999.90;999.90;;;15.90;99.90;;;;;;4974328;28;20043;-71
2023/10/02 02:54:59;;;;;;;1999.90;999.90;;;16.00;99.90;;;;;;4985278;28;20391;-72
2023/10/02 02:57:26;;;;;;;1999.90;999.90;;;16.00;99.90;;;;;;4976500;28;20038;-71
2023/10/02 03:02:45;;;;;;;1999.90;999.90;;;16.00;99.90;;;;;;4980849;28;20046;-71
2023/10/02 03:05:16;;;;;;;1999.90;999.90;;;16.00;99.90;;;;;;4969217;28;20054;-71
2023/10/02 03:07:44;;;;;;;1999.90;999.90;;;16.00;99.90;;;;;;4980423;28;20065;-71
2023/10/02 03:10:11;;;;;;;1999.90;999.90;;;16.00;99.90;;;;;;4985751;28;20081;-71
2023/10/02 03:12:48;;;;;;;1999.90;999.90;;;16.00;99.90;;;;;;4983733;28;20057;-71
2023/10/02 03:15:19;;;;;;;1999.90;999.90;;;16.10;99.90;;;;;;4980686;28;20065;-71
2023/10/02 03:17:47;;;;;;;1999.90;999.90;;;16.10;99.90;;;;;;4980364;28;20046;-71
2023/10/02 03:20:25;;;;;;;1999.90;999.90;;;16.00;99.90;;;;;;4982342;28;20077;-71
2023/10/02 03:22:57;;;;;;;1999.90;999.90;;;16.00;99.90;;;;;;4980871;28;20072;-71
2023/10/02 03:25:40;;;;;;;1999.90;999.90;;;16.00;99.90;;;;;;4979643;28;20054;-71
2023/10/02 03:28:16;;;;;;;1999.90;999.90;;;15.90;99.90;;;;;;4975438;28;20046;-72
2023/10/02 03:30:46;;;;;;;1999.90;999.90;;;15.90;99.90;;;;;;4978623;28;20460;-71
2023/10/02 03:33:20;;;;;;;1999.90;999.90;;;15.90;99.90;;;;;;4984123;28;20533;-71
2023/10/02 03:35:58;;;;;;;1999.90;999.90;;;15.80;99.90;;;;;;4975923;28;20487;-71
2023/10/02 03:38:34;;;;;;;1999.90;999.90;;;15.80;99.90;;;;;;4981961;28;20601;-71
2023/10/02 03:41:03;;;;;;;1999.90;999.90;;;15.80;99.90;;;;;;4974876;28;20054;-71
2023/10/02 03:43:42;;;;;;;1999.90;999.90;;;15.70;99.90;;;;;;4985362;28;20048;-71
2023/10/02 03:46:13;;;;;;;1999.90;999.90;;;15.70;99.90;;;;;;4974652;28;20041;-72
2023/10/02 03:48:39;;;;;;;1999.90;999.90;;;15.70;99.90;;;;;;4979996;28;20056;-71
2023/10/02 03:51:06;;;;;;;1999.90;999.90;;;15.70;99.90;;;;;;4982953;28;20125;-71
2023/10/02 03:53:34;;;;;;;1999.90;999.90;;;15.60;99.90;;;;;;4977345;28;20047;-71
2023/10/02 03:58:53;;;;;;;1999.90;999.90;;;15.70;99.90;;;;;;4976333;28;20046;-71
2023/10/02 04:01:29;;;;;;;1999.90;999.90;;;15.70;99.90;;;;;;4978029;28;20070;-71
2023/10/02 04:06:42;;;;;;;1999.90;999.90;;;15.60;99.90;;;;;;4977207;28;20133;-71
2023/10/02 04:09:12;;;;;;;1999.90;999.90;;;15.60;99.90;;;;;;4978860;28;20042;-71
2023/10/02 04:11:39;;;;;;;1999.90;999.90;;;15.60;99.90;;;;;;4979367;28;20375;-71
2023/10/02 04:14:18;;;;;;;1999.90;999.90;;;15.50;99.90;;;;;;4980222;28;20046;-71
2023/10/02 04:19:33;;;;;;;1999.90;999.90;;;15.40;99.90;;;;;;4979921;28;20042;-71
2023/10/02 04:21:58;;;;;;;1999.90;999.90;;;15.40;99.90;;;;;;5004899;28;20047;-71
2023/10/02 04:24:24;;;;;;;1999.90;999.90;;;15.40;99.90;;;;;;4984370;28;20045;-71
2023/10/02 04:27:14;;;;;;;1999.90;999.90;;;15.40;99.90;;;;;;4986792;28;20034;-72
2023/10/02 04:29:48;;;;;;;1999.90;999.90;;;15.40;99.90;;;;;;4974233;28;20047;-72
2023/10/02 04:32:18;;;;;;;1999.90;999.90;;;15.40;99.90;;;;;;4980829;28;20038;-72
2023/10/02 04:34:50;;;;;;;1999.90;999.90;;;15.40;99.90;;;;;;4978646;28;20327;-72
2023/10/02 04:37:19;;;;;;;1999.90;999.90;;;15.40;99.90;;;;;;4981318;28;20380;-71
2023/10/02 04:39:54;;;;;;;1999.90;999.90;;;15.40;99.90;;;;;;4985854;28;20046;-71
2023/10/02 04:42:21;;;;;;;1999.90;999.90;;;15.40;99.90;;;;;;4983088;28;20479;-71
2023/10/02 04:44:56;;;;;;;1999.90;999.90;;;15.40;99.90;;;;;;4983284;28;20448;-71
2023/10/02 04:47:26;;;;;;;1999.90;999.90;;;15.40;99.90;;;;;;4982985;28;20054;-71
2023/10/02 04:55:28;;;;;;;1999.90;999.90;;;15.40;99.90;;;;;;4976969;28;20129;-72
2023/10/02 04:58:09;;;;;;;1999.90;999.90;;;15.50;99.90;;;;;;4981624;28;20088;-72
2023/10/02 05:00:35;;;;;;;1999.90;999.90;;;15.40;99.90;;;;;;4975823;28;20475;-72
2023/10/02 05:03:25;;;;;;;1999.90;999.90;;;15.40;99.90;;;;;;4978907;28;20114;-71
2023/10/02 05:05:53;;;;;;;1999.90;999.90;;;15.40;99.90;;;;;;4986340;28;20069;-71
2023/10/02 05:08:40;;;;;;;1999.90;999.90;;;15.40;99.90;;;;;;4983177;28;20049;-71
2023/10/02 05:11:07;;;;;;;1999.90;999.90;;;15.30;99.90;;;;;;4984894;28;20087;-71
2023/10/02 05:16:35;;;;;;;1999.90;999.90;;;15.30;99.90;;;;;;4980595;28;20087;-71
2023/10/02 05:19:04;;;;;;;1999.90;999.90;;;15.30;99.90;;;;;;4979155;28;20054;-72
2023/10/02 05:21:38;;;;;;;1999.90;999.90;;;15.20;99.90;;;;;;4975066;28;20044;-71
2023/10/02 05:24:11;;;;;;;;;;;15.20;99.90;;;;;;4974412;28;20049;-72
2023/10/02 05:26:39;;;;;;;1999.90;999.90;;;15.20;99.90;;;;;;4977300;28;19926;-71
2023/10/02 05:29:09;;;;;;;1999.90;999.90;;;15.20;99.90;;;;;;4978680;28;20129;-71
2023/10/02 05:31:43;;;;;;;1999.90;999.90;;;15.10;99.90;;;;;;4975315;28;20502;-71
2023/10/02 05:34:13;;;;;;;1999.90;999.90;;;15.10;99.90;;;;;;4956162;28;20126;-71
2023/10/02 05:36:55;;;;;;;1999.90;999.90;;;15.10;99.90;;;;;;4981281;28;20371;-71
2023/10/02 05:42:05;;;;;;;1999.90;999.90;;;15.00;99.90;;;;;;5012527;28;20054;-71
2023/10/02 05:44:37;;;;;;;1999.90;999.90;;;15.00;99.90;;;;;;4979851;28;20151;-71
2023/10/02 05:47:07;;;;;;;1999.90;999.90;;;14.90;99.90;;;;;;4971736;28;20110;-71
2023/10/02 05:49:33;;;;;;;1999.90;999.90;;;14.90;99.90;;;;;;4979364;28;20049;-71
2023/10/02 05:52:02;;;;;;;1999.90;999.90;;;14.90;99.90;;;;;;4983581;28;20034;-71
2023/10/02 05:54:29;;;;;;;1999.90;999.90;;;14.90;99.90;;;;;;4980086;28;20099;-71
2023/10/02 05:57:14;;;;;;;1999.90;999.90;;;14.90;99.90;;;;;;4987787;28;20117;-72
2023/10/02 05:59:47;;;;;;;;;;;15.00;99.90;;;;;;4988534;28;20046;-71
2023/10/02 06:02:19;;;;;;;1999.90;999.90;;;15.10;99.90;;;;;;4970789;28;20526;-71
2023/10/02 06:04:48;;;;;;;1999.90;999.90;;;15.20;99.90;;;;;;4987014;28;20073;-71
2023/10/02 06:07:43;;;;;;;1999.90;999.90;;;15.20;99.90;;;;;;4982845;28;20038;-71
2023/10/02 06:10:18;;;;;;;1999.90;999.90;;;15.30;99.90;;;;;;4973225;28;20559;-71
2023/10/02 06:12:45;;;;;;;1999.90;999.90;;;15.40;99.90;;;;;;4962105;28;20039;-72
2023/10/02 06:17:58;;;;;;;;;;;15.40;99.90;;;;;;4985849;28;20352;-71
2023/10/02 06:20:23;;;;;;;1999.90;999.90;;;15.50;99.90;;;;;;4985076;28;19921;-72
2023/10/02 06:22:50;;;;;;;1999.90;999.90;;;15.50;99.90;;;;;;4972568;28;20042;-71
2023/10/02 06:25:19;;;;;;;1999.90;999.90;;;15.50;99.90;;;;;;4974125;28;20056;-71
2023/10/02 06:27:47;;;;;;;1999.90;999.90;;;15.50;99.90;;;;;;5002105;28;20125;-71
2023/10/02 06:30:16;;;;;;;1999.90;999.90;;;15.50;99.90;;;;;;4981794;28;21390;-71
2023/10/02 06:32:55;;;;;;;1999.90;999.90;;;15.60;99.90;;;;;;4981673;28;20035;-71
2023/10/02 06:35:21;;;;;;;1999.90;999.90;;;15.60;99.90;;;;;;4982651;28;20168;-71
2023/10/02 06:37:52;;;;;;;1999.90;999.90;;;15.60;99.90;;;;;;4973200;28;20054;-72
2023/10/02 06:40:23;;;;;;;1999.90;999.90;;;15.70;99.90;;;;;;4975307;28;20046;-71
2023/10/02 06:42:50;;;;;;;1999.90;999.90;;;15.70;99.90;;;;;;4977709;28;20181;-71
2023/10/02 06:45:25;;;;;;;1999.90;999.90;;;15.80;99.90;;;;;;4966384;28;20053;-71
2023/10/02 06:47:50;;;;;;;1999.90;999.90;;;15.80;99.90;;;;;;4974248;28;20088;-71
2023/10/02 06:50:31;;;;;;;1999.90;999.90;;;15.90;99.90;;;;;;4971824;28;20047;-72
2023/10/02 06:53:00;;;;;;;1999.90;999.90;;;16.00;99.90;;;;;;4989343;28;20078;-72
2023/10/02 06:55:27;;;;;;;1999.90;999.90;;;16.10;99.90;;;;;;4999839;28;20114;-71
2023/10/02 06:57:54;;;;;;;1999.90;999.90;;;16.20;99.90;;;;;;4982302;28;20047;-71
2023/10/02 07:00:21;;;;;;;1999.90;999.90;;;16.20;99.90;;;;;;5008025;28;20117;-72
2023/10/02 07:03:03;;;;;;;1999.90;999.90;;;16.20;99.90;;;;;;4988326;28;20084;-72
2023/10/02 07:05:32;;;;;;;1999.90;999.90;;;16.30;99.90;;;;;;4977690;28;20515;-71
2023/10/02 07:08:22;;;;;;;1999.90;999.90;;;16.30;99.90;;;;;;4981715;28;20038;-72
2023/10/02 07:10:48;;;;;;;1999.90;999.90;;;16.40;99.90;;;;;;4988852;28;20084;-72
2023/10/02 07:13:23;;;;;;;1999.90;999.90;;;16.50;99.90;;;;;;4980155;28;20107;-71
2023/10/02 07:16:01;;;;;;;1999.90;999.90;;;16.60;99.90;;;;;;4980187;28;20125;-72
2023/10/02 07:18:49;;;;;;;1999.90;999.90;;;16.60;99.90;;;;;;4970343;28;20039;-72
2023/10/02 07:21:21;;;;;;;1999.90;999.90;;;16.80;99.90;;;;;;4981866;28;20050;-71
2023/10/02 07:23:47;;;;;;;1999.90;999.90;;;16.90;99.90;;;;;;4975792;28;20402;-72
2023/10/02 07:26:15;;;;;;;1999.90;999.90;;;17.00;99.90;;;;;;4973315;28;20132;-72
2023/10/02 07:28:52;;;;;;;1999.90;999.90;;;17.10;99.90;;;;;;4990606;28;20059;-72
2023/10/02 07:31:22;;;;;;;1999.90;999.90;;;17.10;99.90;;;;;;4973983;28;20038;-72
2023/10/02 07:33:48;;;;;;;1999.90;999.90;;;17.20;99.90;;;;;;4971221;28;20140;-72
2023/10/02 07:36:15;;;;;;;1999.90;999.90;;;17.30;99.90;;;;;;4975561;28;20078;-72
2023/10/02 07:38:47;;;;;;;1999.90;999.90;;;17.50;99.90;;;;;;4984647;28;20061;-72
2023/10/02 07:41:23;;;;;;;1999.90;999.90;;;17.50;99.90;;;;;;4973340;28;20058;-71
2023/10/02 07:44:07;;;;;;;1999.90;999.90;;;17.60;99.90;;;;;;4990031;28;20169;-72
2023/10/02 07:46:33;;;;;;;1999.90;999.90;;;17.80;99.90;;;;;;4980552;28;20054;-72
2023/10/02 07:49:00;;;;;;;1999.90;999.90;;;17.90;99.90;;;;;;4994730;28;20115;-72
2023/10/02 07:51:35;;;;;;;1999.90;999.90;;;17.90;99.90;;;;;;4975414;28;20499;-71
2023/10/02 07:54:01;;;;;;;1999.90;999.90;;;18.00;99.90;;;;;;4966750;28;20131;-72
2023/10/02 07:56:29;;;;;;;1999.90;999.90;;;18.10;99.90;;;;;;4985384;28;20153;-71
2023/10/02 07:59:01;;;;;;;1999.90;999.90;;;18.20;99.90;;;;;;4983362;28;20040;-72
2023/10/02 08:01:27;;;;;;;1999.90;999.90;;;18.20;99.90;;;;;;4998429;28;20063;-72
2023/10/02 08:03:56;;;;;;;1999.90;999.90;;;18.30;99.90;;;;;;4970299;28;22739;-72
2023/10/02 08:06:44;;;;;;;1999.90;999.90;;;18.40;99.90;;;;;;5013699;28;20494;-72
2023/10/02 08:11:56;;;;;;;1999.90;999.90;;;18.60;99.90;;;;;;4978945;28;20042;-72
2023/10/02 08:14:40;;;;;;;1999.90;999.90;;;18.70;99.90;;;;;;4985561;28;20058;-72
2023/10/02 08:17:21;;;;;;;1999.90;999.90;;;18.70;99.90;;;;;;4982055;28;20585;-72
2023/10/02 08:19:54;;;;;;;1999.90;999.90;;;18.80;99.90;;;;;;4964630;28;20084;-72
2023/10/02 08:22:24;;;;;;;1999.90;999.90;;;18.90;99.90;;;;;;4985821;28;20038;-72
2023/10/02 08:24:52;;;;;;;1999.90;999.90;;;19.10;99.90;;;;;;4978294;28;20043;-72
2023/10/02 08:27:18;;;;;;;1999.90;999.90;;;19.20;99.90;;;;;;4999679;28;20551;-72
2023/10/02 08:29:44;;;;;;;1999.90;999.90;;;19.20;99.90;;;;;;4990503;28;20107;-72
2023/10/02 08:32:11;;;;;;;1999.90;999.90;;;19.20;99.90;;;;;;4978436;28;20046;-72
2023/10/02 08:34:36;;;;;;;1999.90;999.90;;;19.40;99.90;;;;;;4991181;28;20051;-72
2023/10/02 08:37:05;;;;;;;1999.90;999.90;;;19.40;99.90;;;;;;5017152;28;20088;-72
2023/10/02 08:39:35;;;;;;;1999.90;999.90;;;19.50;99.90;;;;;;4976616;28;20049;-72
2023/10/02 08:42:08;;;;;;;1999.90;999.90;;;19.50;99.90;;;;;;4991085;28;20053;-72
2023/10/02 08:44:38;;;;;;;1999.90;999.90;;;19.60;99.90;;;;;;4980676;28;20490;-72
2023/10/02 08:47:06;;;;;;;1999.90;999.90;;;19.80;99.90;;;;;;4979852;28;20062;-72
2023/10/02 08:49:36;;;;;;;1999.90;999.90;;;19.80;99.90;;;;;;4978950;28;20038;-72
2023/10/02 08:52:07;;;;;;;1999.90;999.90;;;19.90;99.90;;;;;;4980930;28;20038;-72
2023/10/02 08:54:32;;;;;;;1999.90;999.90;;;19.80;99.90;;;;;;4971972;28;20041;-72
2023/10/02 08:57:06;;;;;;;1999.90;999.90;;;19.70;99.90;;;;;;5000975;28;20039;-72
2023/10/02 08:59:38;;;;;;;1999.90;999.90;;;19.70;99.90;;;;;;4983495;28;20084;-72
2023/10/02 09:02:14;;;;;;;1999.90;999.90;;;19.60;99.90;;;;;;4980652;28;20051;-72
2023/10/02 09:04:57;;;;;;;1999.90;999.90;;;19.70;99.90;;;;;;4975229;28;20050;-72
2023/10/02 09:07:24;;;;;;;1999.90;999.90;;;19.70;99.90;;;;;;4979879;28;20050;-72
2023/10/02 09:10:26;;;;;;;1999.90;999.90;;;19.90;99.90;;;;;;4979202;28;20054;-72
2023/10/02 09:13:16;;;;;;;1999.90;999.90;;;20.10;99.90;;;;;;4973234;28;20130;-72
2023/10/02 09:15:53;;;;;;;1999.90;999.90;;;20.30;99.90;;;;;;4974558;28;20076;-72
2023/10/02 09:18:34;;;;;;;1999.90;999.90;;;20.50;99.90;;;;;;5006203;28;20051;-72
2023/10/02 09:21:33;;;;;;;1999.90;999.90;;;20.50;99.90;;;;;;4976932;28;20035;-72
2023/10/02 09:23:53;;;;;;;1999.90;999.90;;;20.60;99.90;;;;;;4978890;28;20058;-72
2023/10/02 09:26:32;;;;;;;1999.90;999.90;;;20.80;99.90;;;;;;4975920;28;20114;-72
2023/10/02 09:29:05;;;;;;;1999.90;999.90;;;21.00;99.90;;;;;;4973279;28;20518;-72
2023/10/02 09:31:35;;;;;;;1999.90;999.90;;;21.10;99.90;;;;;;4978187;28;20053;-73
2023/10/02 09:34:11;;;;;;;341.65;323.15;;;21.10;99.90;;;;;;4975742;28;20057;-72
2023/10/02 09:36:47;;;;;;;420.95;397.42;;;21.10;99.90;;;;;;4979924;28;20043;-73
2023/10/02 09:39:36;;;;;;;291.27;276.08;;;21.00;99.90;;;;;;5011551;28;20050;-72
2023/10/02 09:42:06;;;;;;;301.10;285.52;;;20.80;99.90;;;;;;4981499;28;20058;-72
2023/10/02 09:44:45;;;;;;;283.33;269.05;;;20.60;99.90;;;;;;4975646;28;20081;-72
2023/10/02 09:47:20;;;;;;;1999.90;999.90;;;20.50;99.90;;;;;;4980166;28;20097;-72
2023/10/02 09:50:10;;;;;;;1999.90;999.90;;;20.50;99.90;;;;;;4977662;28;20153;-72
2023/10/02 09:52:58;;;;;;;1999.90;999.90;;;20.60;99.90;;;;;;4979819;28;20103;-72
2023/10/02 09:55:57;;;;;;;1999.90;999.90;;;20.90;99.90;;;;;;4994222;28;20050;-72
2023/10/02 09:58:48;;;;;;;285.40;270.60;;;21.40;99.90;;;;;;4989840;28;20054;-72
2023/10/02 10:03:56;;;;;;;482.42;455.38;;;22.10;99.90;;;;;;4984614;28;20491;-72
2023/10/02 10:06:29;;;;;;;321.65;305.42;;;22.00;99.90;;;;;;4977093;28;20355;-72
2023/10/02 10:11:44;;;;;;;456.70;431.85;;;21.80;99.90;;;;;;4979419;28;20479;-72
2023/10/02 10:14:37;;;;;;;288.02;272.90;;;21.50;99.90;;;;;;4983188;28;20049;-72
2023/10/02 10:17:14;;;;;;;1999.90;999.90;;;21.50;99.90;;;;;;4968694;28;20034;-72
2023/10/02 10:20:18;;;;;;;346.83;328.58;;;21.70;99.90;;;;;;5003467;28;20038;-72
2023/10/02 10:22:50;;;;;;;380.13;359.90;;;22.10;99.90;;;;;;4979634;28;20050;-72
2023/10/02 10:25:22;;;;;;;258.45;245.48;;;22.00;99.90;;;;;;4986345;28;20046;-72
2023/10/02 10:27:54;;;;;;;436.35;412.52;;;21.80;99.90;;;;;;4983024;28;20042;-72
2023/10/02 10:30:33;;;;;;;285.45;270.48;;;21.80;99.90;;;;;;4978188;28;20513;-72
2023/10/02 10:35:49;;;;;;;286.02;270.83;;;22.10;99.90;;;;;;4978638;28;20058;-72
2023/10/02 10:38:21;;;;;;;308.17;292.23;;;22.00;99.90;;;;;;4984960;28;20582;-71
2023/10/02 10:40:50;;;;;;;318.90;302.60;;;22.10;99.90;;;;;;4983176;28;20059;-72
2023/10/02 10:43:17;;;;;;;174.82;165.38;;;22.40;99.90;;;;;;4967948;28;20054;-72
2023/10/02 10:45:44;;;;;;;191.80;181.48;;;22.40;99.90;;;;;;4981249;28;20105;-72
2023/10/02 10:48:23;;;;;;;270.02;256.08;;;22.30;99.90;;;;;;4985718;28;20522;-72
2023/10/02 10:50:57;;;;;;;213.88;202.48;;;22.10;99.90;;;;;;4970738;28;20076;-72
2023/10/02 10:53:32;;;;;;;176.63;166.93;;;22.10;99.90;;;;;;4972552;28;20034;-72
2023/10/02 10:56:17;;;;;;;205.15;194.30;;;22.00;99.90;;;;;;4971065;28;20053;-72
2023/10/02 10:58:47;;;;;;;183.98;173.82;;;22.00;99.90;;;;;;4971060;28;20116;-72
2023/10/02 11:01:16;;;;;;;186.93;176.65;;;22.00;99.90;;;;;;4968747;28;20070;-72
2023/10/02 11:03:48;;;;;;;169.00;159.55;;;22.10;99.90;;;;;;4972818;28;20490;-72
2023/10/02 11:06:16;;;;;;;169.13;159.88;;;22.10;99.90;;;;;;4971174;28;20040;-72
2023/10/02 11:08:44;;;;;;;152.88;144.13;;;22.10;99.90;;;;;;4970097;28;20046;-72
2023/10/02 11:11:19;;;;;;;172.13;162.43;;;22.10;99.90;;;;;;4964164;28;20045;-72
2023/10/02 11:13:51;;;;;;;236.70;224.32;;;22.10;99.90;;;;;;4982377;28;20092;-71
2023/10/02 11:16:36;;;;;;;151.85;143.38;;;22.20;99.90;;;;;;4977437;28;20039;-72
2023/10/02 11:22:03;;;;;;;139.20;130.73;;;22.30;99.90;;;;;;4967318;28;19944;-72
2023/10/02 11:24:29;;;;;;;122.97;115.37;;;22.40;99.90;;;;;;4978825;28;20089;-72
2023/10/02 11:27:06;;;;;;;149.93;141.05;;;22.60;99.90;;;;;;4982648;28;20560;-72
2023/10/02 11:29:40;;;;;;;230.32;218.23;;;22.70;99.90;;;;;;4980101;28;20046;-72
2023/10/02 11:32:19;;;;;;;159.68;150.48;;;22.90;99.90;;;;;;4975560;28;20643;-72
2023/10/02 11:34:58;;;;;;;151.85;143.38;;;23.00;99.90;;;;;;4976083;28;20134;-72
2023/10/02 11:37:26;;;;;;;201.40;190.60;;;23.30;99.90;;;;;;4982804;28;20038;-72
2023/10/02 11:39:55;;;;;;;186.45;176.02;;;23.40;99.90;;;;;;4986353;28;20042;-72
2023/10/02 11:42:24;;;;;;;140.88;132.75;;;23.50;99.90;;;;;;4977905;28;20121;-72
2023/10/02 11:44:50;;;;;;;104.78;98.53;;;23.50;99.90;;;;;;4986175;28;20057;-72
2023/10/02 11:47:15;;;;;;;97.90;91.55;;;23.60;99.90;;;;;;4987200;28;20062;-72
2023/10/02 11:49:42;;;;;;;75.13;69.90;;;23.70;99.90;;;;;;4988647;28;20046;-72
2023/10/02 11:52:08;;;;;;;104.85;98.43;;;23.70;99.90;;;;;;4998629;28;20042;-72
2023/10/02 11:54:39;;;;;;;140.32;132.15;;;23.50;99.90;;;;;;4994832;28;20088;-72
2023/10/02 11:57:08;;;;;;;163.98;155.02;;;23.40;99.90;;;;;;4984350;28;20121;-72
2023/10/02 11:59:36;;;;;;;146.68;138.55;;;23.20;99.90;;;;;;4986114;28;20118;-72
2023/10/02 12:02:02;;;;;;;166.95;157.75;;;23.00;99.90;;;;;;4986492;28;20050;-72
2023/10/02 12:04:27;;;;;;;176.45;166.88;;;22.90;99.90;;;;;;4981044;28;20045;-72
2023/10/02 12:06:54;;;;;;;188.82;178.85;;;22.80;99.90;;;;;;4989112;28;20042;-72
2023/10/02 12:09:23;;;;;;;244.98;231.77;;;22.70;99.90;;;;;;4980782;28;20046;-72
2023/10/02 12:11:49;;;;;;;195.38;184.73;;;22.60;99.90;;;;;;4982448;28;20046;-72
2023/10/02 12:14:14;;;;;;;139.32;131.15;;;22.50;99.90;;;;;;4986586;28;20498;-72
2023/10/02 12:16:41;;;;;;;180.32;170.43;;;22.40;99.90;;;;;;4989056;28;20042;-72
2023/10/02 12:19:08;;;;;;;173.10;163.43;;;22.40;99.90;;;;;;4987831;28;20046;-72
2023/10/02 12:21:34;;;;;;;136.23;128.35;;;22.30;99.90;;;;;;4982054;28;20046;-72
2023/10/02 12:24:00;;;;;;;154.70;145.82;;;22.30;99.90;;;;;;4988300;28;20049;-72
2023/10/02 12:26:28;;;;;;;180.93;170.80;;;22.20;99.90;;;;;;4987838;28;20042;-71
2023/10/02 12:28:54;;;;;;;199.93;189.05;;;22.10;99.90;;;;;;4977145;28;20054;-71
2023/10/02 12:31:20;;;;;;;189.15;178.50;;;22.10;99.90;;;;;;4982527;28;20058;-72
2023/10/02 12:33:56;;;;;;;212.35;201.00;;;22.20;99.90;;;;;;5008261;27;20091;-72
2023/10/02 12:36:23;;;;;;;230.40;218.50;;;22.10;99.90;;;;;;4990897;28;20107;-72
2023/10/02 12:38:52;;;;;;;251.82;238.48;;;22.00;99.90;;;;;;4993120;28;20049;-72
2023/10/02 12:41:20;;;;;;;217.60;205.80;;;22.10;99.90;;;;;;4995129;28;20422;-71
2023/10/02 12:43:48;;;;;;;202.40;191.55;;;22.10;99.90;;;;;;4977830;28;20660;-72
2023/10/02 12:46:15;;;;;;;211.65;200.27;;;22.10;99.90;;;;;;4979714;28;20540;-72
2023/10/02 12:48:46;;;;;;;220.75;208.90;;;22.10;99.90;;;;;;4994440;28;20104;-72
2023/10/02 12:51:17;;;;;;;222.77;210.82;;;22.20;99.90;;;;;;4993779;28;20050;-72
2023/10/02 12:53:43;;;;;;;251.00;237.57;;;22.20;99.90;;;;;;4981830;28;20498;-72
2023/10/02 12:56:18;;;;;;;223.73;211.63;;;22.30;99.90;;;;;;4979399;28;20263;-72
2023/10/02 12:58:44;;;;;;;208.50;197.05;;;22.30;99.90;;;;;;4980489;28;20046;-72
2023/10/02 13:01:13;;;;;;;232.05;219.57;;;22.20;99.90;;;;;;4975371;28;20061;-72
2023/10/02 13:03:42;;;;;;;231.20;218.60;;;22.20;99.90;;;;;;5007547;28;20054;-72
2023/10/02 13:06:11;;;;;;;201.30;189.93;;;22.30;99.90;;;;;;5007223;28;20045;-72
2023/10/02 13:08:44;;;;;;;243.15;230.60;;;22.30;99.90;;;;;;4991520;28;20040;-72
2023/10/02 13:11:18;;;;;;;227.30;215.02;;;22.30;99.90;;;;;;4987288;28;20100;-71
2023/10/02 13:13:46;;;;;;;;;;;22.40;99.90;;;;;;4979418;28;20042;-72
2023/10/02 13:16:15;;;;;;;201.15;189.90;;;22.40;99.90;;;;;;5009816;27;19922;-72
2023/10/02 13:18:43;;;;;;;217.70;205.90;;;22.50;99.90;;;;;;5016738;28;20042;-72